createdAt,value
2018-11-10T00:00:28.105Z,31.20
2018-11-10T00:02:55.578Z,30.43
2018-11-10T00:05:23.802Z,29.37
2018-11-10T00:07:51.257Z,28.27
2018-11-10T00:10:19.558Z,28.17
2018-11-10T00:12:47.630Z,27.47
2018-11-10T00:15:15.262Z,28.00
2018-11-10T00:17:43.638Z,32.03
2018-11-10T00:20:11.321Z,35.43
2018-11-10T00:22:40.050Z,29.97
2018-11-10T00:25:08.782Z,30.70
2018-11-10T00:27:36.289Z,29.97
2018-11-10T00:30:03.949Z,30.23
2018-11-10T00:32:31.330Z,29.73
2018-11-10T00:34:58.719Z,29.83
2018-11-10T00:37:26.056Z,28.33
2018-11-10T00:39:53.517Z,28.03
2018-11-10T00:42:21.459Z,29.67
2018-11-10T00:44:49.453Z,31.67
2018-11-10T00:47:16.883Z,26.93
2018-11-10T00:49:44.409Z,28.93
2018-11-10T00:52:11.851Z,30.20
2018-11-10T00:54:39.187Z,28.03
2018-11-10T00:57:06.649Z,27.47
2018-11-10T00:59:34.240Z,28.60
2018-11-10T01:02:01.641Z,25.73
2018-11-10T01:04:28.997Z,25.60
2018-11-10T01:06:56.463Z,31.90
2018-11-10T01:09:23.849Z,25.40
2018-11-10T01:11:51.184Z,29.17
2018-11-10T01:14:21.195Z,25.97
2018-11-10T01:16:48.800Z,28.07
2018-11-10T01:19:16.238Z,25.73
2018-11-10T01:21:43.591Z,26.57
2018-11-10T01:24:11.076Z,25.87
2018-11-10T01:26:38.495Z,29.53
2018-11-10T01:29:06.576Z,26.33
2018-11-10T01:31:33.967Z,27.23
2018-11-10T01:34:01.382Z,28.50
2018-11-10T01:36:28.923Z,28.33
2018-11-10T01:38:56.240Z,28.30
2018-11-10T01:41:23.610Z,29.07
2018-11-10T01:43:50.940Z,25.87
2018-11-10T01:46:18.324Z,28.73
2018-11-10T01:48:45.655Z,27.80
2018-11-10T01:51:13.042Z,26.33
2018-11-10T01:53:40.379Z,29.03
2018-11-10T01:56:07.836Z,26.53
2018-11-10T01:58:35.222Z,28.17
2018-11-10T02:01:02.586Z,25.40
2018-11-10T02:03:30.027Z,26.77
2018-11-10T02:05:57.388Z,24.47
2018-11-10T02:08:24.799Z,23.93
2018-11-10T02:10:52.259Z,25.23
2018-11-10T02:13:19.661Z,24.50
2018-11-10T02:15:47.031Z,24.77
2018-11-10T02:18:14.403Z,25.37
2018-11-10T02:20:41.769Z,24.83
2018-11-10T02:23:09.133Z,21.67
2018-11-10T02:25:36.557Z,22.77
2018-11-10T02:28:03.981Z,21.53
2018-11-10T02:30:31.361Z,25.33
2018-11-10T02:32:59.700Z,22.13
2018-11-10T02:35:27.115Z,21.03
2018-11-10T02:37:54.489Z,21.50
2018-11-10T02:40:21.829Z,23.33
2018-11-10T02:42:49.302Z,20.37
2018-11-10T02:45:17.226Z,19.17
2018-11-10T02:47:45.149Z,19.43
2018-11-10T02:50:12.574Z,22.07
2018-11-10T02:52:40.110Z,19.37
2018-11-10T02:55:08.371Z,19.20
2018-11-10T02:57:35.718Z,21.37
2018-11-10T03:00:03.049Z,20.13
2018-11-10T03:02:30.378Z,18.10
2018-11-10T03:04:57.788Z,17.73
2018-11-10T03:07:25.183Z,18.17
2018-11-10T03:09:52.594Z,18.73
2018-11-10T03:12:19.896Z,15.43
2018-11-10T03:14:47.308Z,16.57
2018-11-10T03:17:15.290Z,15.57
2018-11-10T03:19:42.785Z,14.90
2018-11-10T03:22:10.136Z,14.77
2018-11-10T03:24:37.538Z,15.03
2018-11-10T03:27:06.465Z,15.17
2018-11-10T03:29:33.868Z,14.30
2018-11-10T03:32:01.237Z,14.50
2018-11-10T03:34:28.778Z,12.93
2018-11-10T03:36:56.259Z,17.13
2018-11-10T03:39:23.611Z,12.60
2018-11-10T03:41:51.009Z,12.67
2018-11-10T03:44:18.349Z,11.97
2018-11-10T03:46:45.686Z,13.73
2018-11-10T03:49:13.141Z,11.80
2018-11-10T03:51:42.727Z,10.77
2018-11-10T03:54:10.221Z,11.37
2018-11-10T03:56:37.685Z,10.90
2018-11-10T03:59:05.544Z,11.37
2018-11-10T04:01:32.884Z,11.93
2018-11-10T04:04:00.256Z,11.77
2018-11-10T04:06:27.604Z,10.43
2018-11-10T04:08:54.941Z,9.97
2018-11-10T04:11:22.324Z,10.00
2018-11-10T04:13:49.783Z,9.50
2018-11-10T04:16:17.216Z,9.40
2018-11-10T04:18:44.538Z,11.07
2018-11-10T04:21:12.022Z,9.83
2018-11-10T04:23:39.757Z,8.67
2018-11-10T04:26:13.975Z,11.17
2018-11-10T04:28:41.630Z,10.00
2018-11-10T04:31:09.020Z,8.87
2018-11-10T04:33:36.448Z,10.33
2018-11-10T04:36:04.042Z,8.43
2018-11-10T04:38:31.410Z,8.37
2018-11-10T04:40:58.792Z,8.47
2018-11-10T04:43:26.118Z,7.30
2018-11-10T04:45:53.534Z,7.73
2018-11-10T04:48:21.055Z,7.17
2018-11-10T04:50:48.482Z,7.30
2018-11-10T04:53:15.843Z,6.73
2018-11-10T04:55:43.253Z,7.83
2018-11-10T04:58:10.744Z,6.13
2018-11-10T05:00:38.191Z,7.60
2018-11-10T05:03:05.729Z,5.73
2018-11-10T05:05:33.154Z,6.00
2018-11-10T05:08:00.657Z,5.23
2018-11-10T05:10:28.024Z,5.43
2018-11-10T05:12:55.395Z,5.37
2018-11-10T05:15:22.833Z,5.07
2018-11-10T05:17:50.853Z,5.10
2018-11-10T05:20:18.205Z,5.43
2018-11-10T05:22:45.527Z,5.83
2018-11-10T05:25:12.876Z,4.50
2018-11-10T05:27:40.520Z,5.93
2018-11-10T05:30:08.521Z,4.70
2018-11-10T05:32:35.961Z,4.63
2018-11-10T05:35:03.474Z,4.70
2018-11-10T05:37:30.859Z,4.20
2018-11-10T05:39:58.217Z,4.53
2018-11-10T05:42:25.620Z,4.10
2018-11-10T05:44:52.978Z,4.27
2018-11-10T05:47:20.314Z,5.23
2018-11-10T05:49:47.714Z,5.87
2018-11-10T05:52:15.102Z,4.23
2018-11-10T05:54:42.550Z,5.33
2018-11-10T05:57:09.994Z,3.93
2018-11-10T05:59:38.024Z,5.97
2018-11-10T06:02:06.029Z,5.57
2018-11-10T06:04:33.607Z,3.93
2018-11-10T06:07:00.976Z,4.43
2018-11-10T06:09:28.376Z,3.63
2018-11-10T06:11:55.816Z,3.50
2018-11-10T06:14:23.248Z,4.43
2018-11-10T06:16:50.600Z,3.00
2018-11-10T06:19:18.054Z,5.13
2018-11-10T06:21:45.396Z,3.63
2018-11-10T06:24:12.773Z,4.00
2018-11-10T06:26:40.266Z,4.43
2018-11-10T06:29:07.662Z,3.53
2018-11-10T06:31:35.110Z,3.73
2018-11-10T06:34:02.462Z,3.43
2018-11-10T06:36:29.826Z,4.43
2018-11-10T06:38:57.191Z,3.80
2018-11-10T06:41:24.731Z,3.67
2018-11-10T06:43:52.007Z,4.77
2018-11-10T06:46:21.003Z,5.33
2018-11-10T06:48:48.777Z,4.60
2018-11-10T06:51:16.363Z,3.80
2018-11-10T06:53:43.729Z,4.17
2018-11-10T06:56:11.211Z,4.00
2018-11-10T06:58:39.739Z,4.00
2018-11-10T07:01:07.133Z,4.53
2018-11-10T07:03:34.583Z,3.87
2018-11-10T07:06:01.972Z,4.23
2018-11-10T07:08:29.348Z,4.27
2018-11-10T07:11:04.506Z,6.13
2018-11-10T07:13:32.098Z,3.53
2018-11-10T07:15:59.432Z,3.40
2018-11-10T07:18:27.343Z,4.53
2018-11-10T07:20:54.685Z,5.17
2018-11-10T07:23:22.172Z,4.13
2018-11-10T07:25:49.620Z,4.43
2018-11-10T07:28:17.072Z,3.87
2018-11-10T07:30:45.003Z,4.03
2018-11-10T07:33:12.352Z,4.30
2018-11-10T07:35:39.717Z,3.43
2018-11-10T07:38:07.181Z,3.50
2018-11-10T07:40:34.706Z,3.50
2018-11-10T07:43:02.226Z,3.93
2018-11-10T07:45:30.676Z,4.57
2018-11-10T07:47:58.085Z,3.63
2018-11-10T07:50:25.800Z,3.27
2018-11-10T07:52:53.872Z,3.60
2018-11-10T07:55:21.621Z,4.20
2018-11-10T07:57:48.963Z,4.03
2018-11-10T08:00:17.481Z,3.80
2018-11-10T08:02:45.008Z,3.97
2018-11-10T08:05:13.741Z,4.20
2018-11-10T08:07:42.705Z,4.10
2018-11-10T08:10:10.718Z,4.47
2018-11-10T08:12:38.771Z,4.53
2018-11-10T08:15:08.709Z,3.77
2018-11-10T08:17:36.333Z,4.30
2018-11-10T08:20:03.845Z,4.20
2018-11-10T08:22:31.245Z,5.00
2018-11-10T08:24:58.764Z,5.17
2018-11-10T08:27:26.302Z,7.67
2018-11-10T08:29:53.660Z,5.70
2018-11-10T08:32:21.158Z,6.90
2018-11-10T08:34:49.186Z,10.37
2018-11-10T08:37:16.572Z,10.97
2018-11-10T08:39:44.082Z,10.03
2018-11-10T08:42:11.630Z,9.73
2018-11-10T08:44:39.041Z,10.53
2018-11-10T08:47:07.040Z,11.93
2018-11-10T08:49:34.714Z,9.97
2018-11-10T08:52:02.240Z,10.97
2018-11-10T08:54:29.766Z,9.83
2018-11-10T08:56:57.356Z,10.50
2018-11-10T08:59:24.874Z,9.27
2018-11-10T09:01:52.278Z,9.17
2018-11-10T09:04:19.738Z,9.37
2018-11-10T09:06:47.132Z,8.87
2018-11-10T09:09:14.588Z,8.47
2018-11-10T09:11:42.107Z,8.80
2018-11-10T09:14:09.737Z,8.10
2018-11-10T09:16:37.206Z,9.13
2018-11-10T09:19:05.500Z,9.17
2018-11-10T09:21:33.078Z,8.27
2018-11-10T09:24:00.463Z,9.87
2018-11-10T09:26:27.848Z,8.93
2018-11-10T09:28:55.270Z,7.83
2018-11-10T09:31:22.667Z,8.50
2018-11-10T09:33:50.791Z,8.63
2018-11-10T09:36:18.295Z,8.83
2018-11-10T09:38:46.392Z,8.83
2018-11-10T09:41:14.562Z,8.73
2018-11-10T09:43:41.961Z,9.00
2018-11-10T09:46:09.283Z,9.73
2018-11-10T09:48:36.674Z,9.87
2018-11-10T09:51:04.156Z,8.00
2018-11-10T09:53:31.973Z,9.67
2018-11-10T09:55:59.363Z,9.30
2018-11-10T09:58:26.915Z,9.93
2018-11-10T10:00:54.478Z,9.63
2018-11-10T10:03:21.811Z,10.67
2018-11-10T10:05:49.361Z,10.73
2018-11-10T10:08:16.816Z,11.93
2018-11-10T10:10:44.195Z,11.30
2018-11-10T10:13:11.612Z,10.67
2018-11-10T10:15:39.172Z,11.87
2018-11-10T10:18:06.661Z,9.87
2018-11-10T10:20:34.025Z,11.47
2018-11-10T10:23:01.529Z,13.67
2018-11-10T10:25:28.905Z,21.80
2018-11-10T10:27:56.362Z,14.33
2018-11-10T10:30:24.974Z,14.37
2018-11-10T10:32:52.618Z,10.40
2018-11-10T10:35:20.193Z,10.33
2018-11-10T10:37:48.783Z,13.33
2018-11-10T10:40:16.376Z,10.67
2018-11-10T10:42:45.985Z,9.97
2018-11-10T10:45:16.730Z,10.57
2018-11-10T10:47:44.462Z,10.13
2018-11-10T10:50:14.163Z,10.70
2018-11-10T10:52:41.750Z,10.77
2018-11-10T10:55:10.516Z,12.43
2018-11-10T10:57:38.651Z,12.17
2018-11-10T11:00:14.267Z,10.80
2018-11-10T11:02:47.990Z,13.97
2018-11-10T11:05:18.173Z,12.13
2018-11-10T11:07:46.119Z,11.77
2018-11-10T11:10:13.439Z,11.57
2018-11-10T11:12:40.877Z,12.07
2018-11-10T11:15:08.343Z,11.60
2018-11-10T11:17:35.948Z,11.60
2018-11-10T11:20:03.689Z,10.97
2018-11-10T11:22:31.123Z,13.93
2018-11-10T11:24:58.515Z,11.00
2018-11-10T11:27:26.168Z,11.27
2018-11-10T11:29:53.716Z,10.07
2018-11-10T11:32:21.177Z,10.80
2018-11-10T11:34:48.763Z,12.27
2018-11-10T11:37:16.551Z,10.43
2018-11-10T11:39:44.170Z,11.00
2018-11-10T11:42:12.293Z,10.57
2018-11-10T11:44:40.424Z,11.80
2018-11-10T11:47:07.662Z,12.07
2018-11-10T11:49:35.082Z,10.80
2018-11-10T11:52:02.465Z,10.40
2018-11-10T11:54:29.827Z,13.07
2018-11-10T11:56:57.250Z,10.00
2018-11-10T11:59:24.875Z,9.67
2018-11-10T12:01:52.214Z,11.03
2018-11-10T12:04:19.718Z,10.47
2018-11-10T12:06:47.050Z,10.97
2018-11-10T12:09:14.438Z,12.60
2018-11-10T12:11:41.958Z,11.33
2018-11-10T12:14:09.393Z,11.60
2018-11-10T12:16:36.773Z,11.27
2018-11-10T12:19:04.721Z,11.73
2018-11-10T12:21:32.091Z,11.47
2018-11-10T12:23:59.454Z,12.47
2018-11-10T12:26:26.813Z,11.30
2018-11-10T12:28:54.820Z,13.33
2018-11-10T12:31:22.279Z,11.17
2018-11-10T12:33:49.908Z,11.37
2018-11-10T12:36:17.302Z,14.77
2018-11-10T12:38:44.661Z,12.10
2018-11-10T12:41:12.175Z,11.47
2018-11-10T12:43:39.799Z,13.17
2018-11-10T12:46:07.289Z,13.67
2018-11-10T12:48:34.905Z,14.03
2018-11-10T12:51:02.634Z,12.87
2018-11-10T12:53:29.981Z,12.87
2018-11-10T12:55:57.425Z,12.70
2018-11-10T12:58:25.101Z,13.50
2018-11-10T13:00:52.677Z,13.70
2018-11-10T13:03:20.113Z,14.23
2018-11-10T13:05:47.587Z,13.07
2018-11-10T13:08:15.139Z,13.80
2018-11-10T13:10:42.524Z,13.37
2018-11-10T13:13:09.891Z,13.23
2018-11-10T13:15:37.257Z,11.77
2018-11-10T13:18:04.727Z,15.40
2018-11-10T13:20:32.258Z,12.73
2018-11-10T13:23:00.296Z,12.20
2018-11-10T13:25:27.872Z,13.10
2018-11-10T13:27:55.462Z,13.30
2018-11-10T13:30:23.003Z,13.13
2018-11-10T13:32:50.405Z,12.97
2018-11-10T13:35:17.895Z,14.87
2018-11-10T13:37:45.225Z,12.30
2018-11-10T13:40:12.624Z,14.07
2018-11-10T13:42:40.098Z,10.00
2018-11-10T13:45:09.408Z,8.67
2018-11-10T13:47:36.919Z,7.60
2018-11-10T13:52:44.427Z,6.33
2018-11-10T13:55:13.492Z,5.43
2018-11-10T13:57:40.836Z,4.57
2018-11-10T14:00:11.680Z,4.33
2018-11-10T14:02:39.201Z,4.70
2018-11-10T14:05:06.718Z,5.30
2018-11-10T14:07:34.279Z,3.80
2018-11-10T14:10:01.789Z,4.10
2018-11-10T14:12:29.454Z,3.63
2018-11-10T14:14:56.937Z,5.30
2018-11-10T14:17:24.291Z,3.40
2018-11-10T14:19:51.796Z,3.80
2018-11-10T14:22:19.293Z,4.10
2018-11-10T14:24:46.747Z,4.53
2018-11-10T14:27:14.145Z,3.77
2018-11-10T14:29:41.658Z,3.53
2018-11-10T14:32:09.184Z,3.97
2018-11-10T14:34:36.563Z,4.27
2018-11-10T14:37:03.987Z,2.90
2018-11-10T14:39:31.543Z,3.67
2018-11-10T14:41:58.925Z,3.93
2018-11-10T14:44:26.252Z,3.60
2018-11-10T14:46:53.624Z,3.83
2018-11-10T14:49:21.094Z,3.53
2018-11-10T14:51:48.550Z,3.83
2018-11-10T14:54:16.043Z,4.97
2018-11-10T14:56:43.406Z,4.50
2018-11-10T14:59:10.769Z,4.70
2018-11-10T15:01:38.230Z,4.60
2018-11-10T15:04:05.940Z,4.60
2018-11-10T15:06:33.362Z,4.30
2018-11-10T15:09:00.994Z,5.80
2018-11-10T15:11:28.486Z,5.50
2018-11-10T15:13:56.031Z,4.23
2018-11-10T15:16:23.468Z,3.93
2018-11-10T15:18:50.833Z,3.60
2018-11-10T15:21:18.303Z,3.70
2018-11-10T15:23:46.666Z,3.90
2018-11-10T15:26:14.216Z,5.27
2018-11-10T15:28:41.702Z,4.30
2018-11-10T15:31:09.080Z,4.20
2018-11-10T15:33:36.434Z,4.80
2018-11-10T15:36:03.837Z,4.10
2018-11-10T15:38:31.259Z,4.10
2018-11-10T15:40:59.147Z,4.13
2018-11-10T15:43:26.530Z,4.33
2018-11-10T15:45:54.043Z,4.50
2018-11-10T15:48:21.399Z,3.87
2018-11-10T15:50:48.872Z,4.27
2018-11-10T15:53:16.326Z,5.03
2018-11-10T15:55:43.751Z,4.83
2018-11-10T15:58:11.117Z,3.77
2018-11-10T16:00:38.511Z,5.60
2018-11-10T16:03:05.959Z,11.63
2018-11-10T16:05:33.405Z,7.13
2018-11-10T16:08:01.137Z,5.00
2018-11-10T16:10:28.676Z,4.13
2018-11-10T16:12:56.047Z,4.87
2018-11-10T16:15:23.551Z,4.90
2018-11-10T16:17:51.808Z,4.80
2018-11-10T16:20:20.138Z,6.87
2018-11-10T16:22:49.063Z,5.23
2018-11-10T16:25:17.106Z,6.63
2018-11-10T16:27:44.815Z,5.37
2018-11-10T16:30:13.864Z,4.93
2018-11-10T16:32:41.266Z,6.73
2018-11-10T16:35:08.990Z,5.10
2018-11-10T16:37:36.494Z,4.50
2018-11-10T16:40:06.104Z,4.83
2018-11-10T16:42:33.514Z,5.20
2018-11-10T16:45:00.962Z,7.03
2018-11-10T16:47:28.360Z,3.73
2018-11-10T16:49:55.805Z,4.17
2018-11-10T16:52:23.267Z,5.63
2018-11-10T16:54:50.859Z,3.70
2018-11-10T16:57:18.533Z,5.20
2018-11-10T16:59:46.084Z,5.03
2018-11-10T17:02:13.591Z,4.17
2018-11-10T17:04:41.040Z,7.27
2018-11-10T17:07:08.431Z,6.53
2018-11-10T17:09:35.905Z,5.03
2018-11-10T17:12:03.451Z,7.17
2018-11-10T17:14:30.894Z,6.00
2018-11-10T17:16:58.320Z,5.80
2018-11-10T17:19:25.743Z,7.83
2018-11-10T17:21:53.290Z,6.17
2018-11-10T17:24:20.601Z,5.33
2018-11-10T17:26:48.000Z,5.83
2018-11-10T17:29:15.423Z,6.97
2018-11-10T17:31:42.941Z,6.33
2018-11-10T17:34:10.439Z,6.87
2018-11-10T17:36:37.839Z,7.70
2018-11-10T17:39:07.447Z,6.10
2018-11-10T17:41:34.964Z,6.00
2018-11-10T17:44:02.617Z,6.20
2018-11-10T17:46:30.127Z,8.87
2018-11-10T17:48:57.577Z,8.67
2018-11-10T17:51:25.279Z,7.10
2018-11-10T17:53:52.655Z,6.50
2018-11-10T17:56:20.071Z,7.70
2018-11-10T17:58:47.932Z,9.00
2018-11-10T18:01:15.234Z,9.87
2018-11-10T18:03:42.687Z,7.30
2018-11-10T18:06:10.692Z,9.10
2018-11-10T18:08:38.184Z,9.90
2018-11-10T18:11:06.120Z,8.73
2018-11-10T18:13:33.487Z,8.40
2018-11-10T18:16:00.946Z,9.63
2018-11-10T18:18:28.524Z,9.17
2018-11-10T18:20:55.949Z,9.50
2018-11-10T18:23:23.496Z,10.90
2018-11-10T18:25:51.011Z,10.97
2018-11-10T18:28:18.402Z,8.10
2018-11-10T18:30:45.743Z,10.33
2018-11-10T18:33:13.474Z,9.57
2018-11-10T18:35:40.883Z,9.83
2018-11-10T18:38:08.282Z,9.03
2018-11-10T18:40:35.647Z,9.27
2018-11-10T18:43:03.101Z,11.87
2018-11-10T18:45:30.533Z,9.80
2018-11-10T18:47:58.052Z,11.10
2018-11-10T18:50:25.485Z,9.23
2018-11-10T18:52:52.913Z,10.23
2018-11-10T18:55:20.314Z,9.50
2018-11-10T18:57:48.160Z,9.37
2018-11-10T19:00:16.780Z,9.67
2018-11-10T19:02:44.627Z,11.07
2018-11-10T19:05:13.340Z,9.67
2018-11-10T19:07:40.900Z,11.90
2018-11-10T19:10:10.464Z,14.00
2018-11-10T19:12:38.269Z,10.40
2018-11-10T19:15:08.369Z,10.27
2018-11-10T19:17:35.801Z,10.57
2018-11-10T19:20:03.149Z,10.70
2018-11-10T19:22:31.269Z,9.27
2018-11-10T19:24:58.806Z,8.50
2018-11-10T19:27:26.244Z,10.20
2018-11-10T19:29:53.768Z,8.87
2018-11-10T19:32:21.209Z,10.27
2018-11-10T19:34:48.962Z,10.77
2018-11-10T19:37:16.676Z,9.07
2018-11-10T19:39:44.109Z,8.70
2018-11-10T19:42:11.501Z,10.13
2018-11-10T19:44:39.037Z,8.83
2018-11-10T19:47:06.300Z,9.73
2018-11-10T19:49:33.849Z,8.50
2018-11-10T19:52:01.324Z,8.13
2018-11-10T19:54:28.781Z,9.60
2018-11-10T19:56:56.929Z,9.30
2018-11-10T19:59:24.303Z,8.40
2018-11-10T20:01:52.077Z,11.13
2018-11-10T20:04:19.517Z,9.07
2018-11-10T20:06:47.575Z,10.93
2018-11-10T20:09:14.903Z,14.90
2018-11-10T20:11:42.436Z,12.53
2018-11-10T20:14:10.931Z,13.43
2018-11-10T20:16:38.308Z,8.87
2018-11-10T20:19:05.759Z,10.70
2018-11-10T20:21:33.591Z,8.87
2018-11-10T20:24:01.192Z,9.03
2018-11-10T20:26:28.591Z,8.47
2018-11-10T20:28:56.073Z,8.93
2018-11-10T20:31:23.537Z,9.03
2018-11-10T20:33:57.758Z,8.13
2018-11-10T20:36:25.460Z,8.03
2018-11-10T20:38:53.192Z,10.90
2018-11-10T20:41:20.648Z,13.33
2018-11-10T20:43:48.096Z,10.13
2018-11-10T20:46:15.756Z,9.17
2018-11-10T20:48:43.142Z,9.57
2018-11-10T20:51:10.828Z,8.67
2018-11-10T20:53:38.210Z,9.27
2018-11-10T20:56:05.782Z,7.90
2018-11-10T20:58:33.943Z,8.10
2018-11-10T21:01:01.455Z,8.97
2018-11-10T21:03:30.166Z,7.80
2018-11-10T21:05:57.563Z,8.43
2018-11-10T21:08:25.015Z,8.47
2018-11-10T21:10:53.140Z,10.47
2018-11-10T21:13:20.614Z,8.47
2018-11-10T21:15:48.031Z,8.73
2018-11-10T21:18:15.591Z,8.47
2018-11-10T21:20:43.131Z,8.57
2018-11-10T21:23:10.618Z,11.97
2018-11-10T21:25:37.997Z,7.87
2018-11-10T21:28:05.570Z,9.40
2018-11-10T21:30:32.990Z,7.77
2018-11-10T21:33:00.473Z,9.70
2018-11-10T21:35:27.943Z,7.87
2018-11-10T21:37:55.580Z,13.10
2018-11-10T21:40:23.029Z,7.47
2018-11-10T21:42:50.391Z,8.00
2018-11-10T21:45:18.789Z,8.30
2018-11-10T21:47:46.675Z,8.67
2018-11-10T21:50:16.260Z,7.87
2018-11-10T21:52:44.451Z,7.00
2018-11-10T21:55:13.361Z,8.23
2018-11-10T21:57:41.511Z,8.60
2018-11-10T22:00:11.101Z,8.77
2018-11-10T22:02:39.288Z,7.27
2018-11-10T22:05:07.310Z,7.20
2018-11-10T22:07:34.935Z,7.40
2018-11-10T22:10:02.553Z,7.90
2018-11-10T22:12:29.913Z,6.60
2018-11-10T22:14:57.442Z,7.43
2018-11-10T22:17:24.931Z,6.60
2018-11-10T22:19:52.476Z,6.43
2018-11-10T22:22:20.020Z,6.77
2018-11-10T22:24:47.454Z,6.83
2018-11-10T22:27:14.826Z,7.77
2018-11-10T22:29:42.290Z,8.90
2018-11-10T22:32:09.631Z,6.67
2018-11-10T22:34:37.026Z,7.77
2018-11-10T22:37:04.486Z,7.23
2018-11-10T22:39:31.858Z,6.13
2018-11-10T22:41:59.323Z,5.70
2018-11-10T22:44:26.760Z,6.30
2018-11-10T22:46:54.238Z,5.87
2018-11-10T22:49:21.626Z,6.00
2018-11-10T22:51:48.948Z,5.80
2018-11-10T22:54:16.436Z,5.80
2018-11-10T22:56:43.947Z,6.73
2018-11-10T22:59:11.464Z,6.27
2018-11-10T23:01:38.945Z,6.97
2018-11-10T23:04:06.987Z,5.47
2018-11-10T23:06:34.376Z,7.60
2018-11-10T23:09:02.416Z,5.50
2018-11-10T23:11:29.823Z,6.10
2018-11-10T23:13:57.267Z,7.63
2018-11-10T23:16:24.699Z,7.60
2018-11-10T23:18:52.063Z,6.77
2018-11-10T23:21:19.557Z,5.10
2018-11-10T23:23:46.968Z,5.73
2018-11-10T23:26:14.471Z,5.40
2018-11-10T23:28:41.946Z,7.40
2018-11-10T23:31:09.304Z,6.20
2018-11-10T23:33:37.257Z,6.47
2018-11-10T23:36:04.724Z,6.27
2018-11-10T23:38:32.066Z,7.03
2018-11-10T23:40:59.551Z,5.93
2018-11-10T23:43:27.040Z,6.53
2018-11-10T23:45:54.396Z,5.40
2018-11-10T23:48:21.751Z,5.10
2018-11-10T23:50:49.113Z,6.33
2018-11-10T23:53:20.554Z,5.93
2018-11-10T23:55:48.236Z,6.73
2018-11-10T23:58:16.221Z,6.50
